South Collingham, United Kingdom
Current Conditions -  °F | °C
As of 12:50 PM on Saturday 20 Dec 2014 (Local Time) from EGXW Reporting Station
Broken Clouds Broken Clouds  
Wind Chill:   Ceiling: 25000
Heat Index:   Visibility: 6mi
Dew Point:   Wind: 17mph
Humidity: 66%   Direction: 290°WNW
Pressure: 30.18"   Gusts: 31mph
Location:  53.13°N, 0.77°W
Report Text: EGXW 201250Z 29015G27KT 9999 SCT030 BKN250 08/02 Q1022 BLU NOSIG
Loading
Personal Weather Stations






























Interactive Weather Map New forecast layout! Learn more

10-Day Weather Forecast

Advertisements
Track Severe Weather on mobile